createdAt,value
2023-02-13T00:00:45.697Z,13.27
2023-02-13T00:03:13.879Z,19.83
2023-02-13T00:05:42.648Z,10.33
2023-02-13T00:08:10.691Z,13.97
2023-02-13T00:10:39.314Z,14.00
2023-02-13T00:13:07.486Z,10.40
2023-02-13T00:15:35.367Z,11.03
2023-02-13T00:18:03.863Z,11.47
2023-02-13T00:20:31.954Z,11.57
2023-02-13T00:23:00.873Z,12.43
2023-02-13T00:25:29.387Z,11.27
2023-02-13T00:27:57.377Z,10.07
2023-02-13T00:30:25.388Z,8.57
2023-02-13T00:32:53.324Z,10.20
2023-02-13T00:35:21.668Z,9.53
2023-02-13T00:37:50.549Z,9.20
2023-02-13T00:40:18.820Z,8.77
2023-02-13T00:42:46.751Z,10.67
2023-02-13T00:45:15.107Z,8.97
2023-02-13T00:47:43.224Z,9.07
2023-02-13T00:50:12.499Z,10.33
2023-02-13T00:52:41.259Z,8.60
2023-02-13T00:55:10.398Z,7.73
2023-02-13T00:57:38.461Z,9.97
2023-02-13T01:00:10.634Z,10.67
2023-02-13T01:02:38.459Z,9.53
2023-02-13T01:05:08.593Z,7.80
2023-02-13T01:07:36.728Z,8.40
2023-02-13T01:10:05.348Z,8.63
2023-02-13T01:12:33.641Z,7.00
2023-02-13T01:15:01.297Z,7.40
2023-02-13T01:17:28.996Z,8.07
2023-02-13T01:19:57.597Z,8.00
2023-02-13T01:22:25.841Z,7.07
2023-02-13T01:24:54.436Z,5.50
2023-02-13T01:27:22.488Z,7.30
2023-02-13T01:29:50.865Z,8.23
2023-02-13T01:32:18.990Z,6.20
2023-02-13T01:34:47.171Z,8.80
2023-02-13T01:37:14.865Z,7.10
2023-02-13T01:39:42.719Z,7.03
2023-02-13T01:42:23.619Z,6.40
2023-02-13T01:45:02.374Z,7.90
2023-02-13T01:47:32.465Z,8.17
2023-02-13T01:50:12.792Z,7.97
2023-02-13T01:52:43.688Z,6.67
2023-02-13T01:55:10.868Z,7.93
2023-02-13T01:57:38.471Z,11.37
2023-02-13T02:00:11.255Z,7.53
2023-02-13T02:02:43.178Z,11.03
2023-02-13T02:05:17.063Z,6.97
2023-02-13T02:07:45.222Z,6.13
2023-02-13T02:10:14.749Z,6.63
2023-02-13T02:12:48.766Z,7.20
2023-02-13T02:15:16.418Z,9.10
2023-02-13T02:17:45.232Z,6.13
2023-02-13T02:21:05.970Z,10.30
2023-02-13T02:23:32.979Z,7.23
2023-02-13T02:26:03.005Z,5.73
2023-02-13T02:28:47.957Z,6.23
2023-02-13T02:31:39.741Z,8.10
2023-02-13T02:34:44.572Z,9.50
2023-02-13T02:37:28.277Z,6.87
2023-02-13T02:40:18.004Z,7.37
2023-02-13T02:43:22.464Z,7.03
2023-02-13T02:46:03.666Z,5.97
2023-02-13T02:48:48.527Z,8.27
2023-02-13T02:51:34.325Z,6.47
2023-02-13T02:54:43.058Z,7.27
2023-02-13T02:59:58.890Z,6.57
2023-02-13T03:02:49.545Z,6.10
2023-02-13T03:05:41.993Z,7.03
2023-02-13T03:08:08.824Z,5.17
2023-02-13T03:10:55.742Z,5.97
2023-02-13T03:13:52.711Z,5.07
2023-02-13T03:16:39.682Z,7.27
2023-02-13T03:19:25.009Z,5.07
2023-02-13T03:22:18.795Z,5.57
2023-02-13T03:25:07.890Z,9.43
2023-02-13T03:28:14.259Z,6.93
2023-02-13T03:31:02.053Z,6.17
2023-02-13T03:33:57.229Z,8.07
2023-02-13T03:37:07.139Z,7.57
2023-02-13T03:39:37.351Z,6.67
2023-02-13T03:42:07.226Z,5.73
2023-02-13T03:45:15.194Z,7.57
2023-02-13T03:47:42.551Z,6.25
2023-02-13T03:50:12.169Z,6.03
2023-02-13T03:52:54.476Z,8.47
2023-02-13T03:55:41.773Z,5.77
2023-02-13T03:58:36.641Z,6.40
2023-02-13T04:01:05.360Z,14.00
2023-02-13T04:03:43.650Z,6.10
2023-02-13T04:06:13.757Z,9.00
2023-02-13T04:08:44.095Z,9.03
2023-02-13T04:11:14.963Z,8.30
2023-02-13T04:13:48.608Z,17.67
2023-02-13T04:16:22.836Z,5.93
2023-02-13T04:18:50.973Z,9.87
2023-02-13T04:23:54.297Z,13.27
2023-02-13T04:26:22.092Z,10.93
2023-02-13T04:28:50.032Z,7.90
2023-02-13T04:31:18.149Z,10.67
2023-02-13T04:33:46.159Z,8.27
2023-02-13T04:36:14.426Z,9.43
2023-02-13T04:38:42.025Z,8.63
2023-02-13T04:41:10.452Z,8.43
2023-02-13T04:43:38.238Z,11.20
2023-02-13T04:46:06.863Z,16.43
2023-02-13T04:48:38.718Z,9.40
2023-02-13T04:51:07.127Z,14.73
2023-02-13T04:53:34.789Z,11.87
2023-02-13T04:56:03.519Z,21.07
2023-02-13T04:58:32.323Z,14.97
2023-02-13T05:01:00.674Z,10.03
2023-02-13T05:03:28.657Z,10.57
2023-02-13T05:05:56.915Z,14.53
2023-02-13T05:08:24.936Z,10.13
2023-02-13T05:10:52.783Z,11.43
2023-02-13T05:13:21.789Z,8.60
2023-02-13T05:15:50.539Z,11.47
2023-02-13T05:18:18.507Z,16.30
2023-02-13T05:21:06.475Z,11.27
2023-02-13T05:23:34.906Z,12.40
2023-02-13T05:26:03.010Z,8.90
2023-02-13T05:28:49.285Z,8.03
2023-02-13T05:31:17.687Z,8.70
2023-02-13T05:33:45.432Z,13.60
2023-02-13T05:36:13.189Z,10.17
2023-02-13T05:38:41.425Z,9.17
2023-02-13T05:41:09.309Z,9.10
2023-02-13T05:43:37.699Z,10.20
2023-02-13T05:46:09.371Z,12.47
2023-02-13T05:48:37.752Z,14.90
2023-02-13T05:51:05.956Z,11.20
2023-02-13T05:53:37.042Z,10.80
2023-02-13T05:56:05.920Z,18.30
2023-02-13T05:58:33.461Z,27.33
2023-02-13T06:01:01.351Z,11.93
2023-02-13T06:03:30.107Z,10.97
2023-02-13T06:05:58.401Z,10.03
2023-02-13T06:08:27.031Z,12.20
2023-02-13T06:10:55.282Z,17.07
2023-02-13T06:13:23.804Z,13.30
2023-02-13T06:15:52.180Z,12.87
2023-02-13T06:18:20.323Z,12.13
2023-02-13T06:20:48.631Z,14.20
2023-02-13T06:23:17.049Z,13.77
2023-02-13T06:25:45.628Z,13.77
2023-02-13T06:28:13.696Z,18.53
2023-02-13T06:30:41.521Z,18.20
2023-02-13T06:33:08.384Z,20.83
2023-02-13T06:35:36.956Z,14.57
2023-02-13T06:38:05.272Z,21.60
2023-02-13T06:40:33.281Z,19.17
2023-02-13T06:43:00.904Z,14.33
2023-02-13T06:45:28.980Z,17.60
2023-02-13T06:47:57.025Z,14.20
2023-02-13T06:50:25.589Z,18.00
2023-02-13T06:52:53.082Z,18.20
2023-02-13T06:55:21.108Z,16.00
2023-02-13T06:57:48.824Z,19.70
2023-02-13T07:00:18.286Z,16.50
2023-02-13T07:02:46.437Z,29.37
2023-02-13T07:05:14.374Z,20.03
2023-02-13T07:07:42.847Z,23.07
2023-02-13T07:10:12.029Z,25.90
2023-02-13T07:12:39.285Z,21.80
2023-02-13T07:15:08.188Z,26.63
2023-02-13T07:17:36.365Z,26.37
2023-02-13T07:20:05.054Z,28.03
2023-02-13T07:22:33.682Z,30.67
2023-02-13T07:25:01.545Z,25.37
2023-02-13T07:27:29.604Z,28.23
2023-02-13T07:29:57.697Z,27.80
2023-02-13T07:32:25.769Z,29.43
2023-02-13T07:35:01.595Z,28.40
2023-02-13T07:37:30.617Z,26.80
2023-02-13T07:39:58.387Z,30.53
2023-02-13T07:42:26.899Z,36.83
2023-02-13T07:44:55.025Z,29.63
2023-02-13T07:47:23.046Z,34.73
2023-02-13T07:49:51.335Z,32.87
2023-02-13T07:52:19.411Z,31.13
2023-02-13T07:54:51.486Z,27.27
2023-02-13T07:57:19.264Z,32.27
2023-02-13T07:59:47.936Z,31.87
2023-02-13T08:02:16.485Z,28.23
2023-02-13T08:05:13.022Z,36.97
2023-02-13T08:07:43.489Z,30.80
2023-02-13T08:10:31.245Z,32.77
2023-02-13T08:12:59.620Z,32.70
2023-02-13T08:15:27.450Z,30.80
2023-02-13T08:17:55.930Z,34.30
2023-02-13T08:20:26.718Z,30.10
2023-02-13T08:22:58.147Z,33.80
2023-02-13T08:25:33.114Z,36.07
2023-02-13T08:28:01.572Z,29.87
2023-02-13T08:30:31.223Z,33.87
2023-02-13T08:33:18.809Z,34.30
2023-02-13T08:35:48.504Z,32.90
2023-02-13T08:38:19.058Z,33.13
2023-02-13T08:40:46.935Z,33.40
2023-02-13T08:43:18.455Z,32.53
2023-02-13T08:45:52.077Z,29.27
2023-02-13T08:48:20.083Z,31.53
2023-02-13T08:50:48.309Z,28.17
2023-02-13T08:53:16.462Z,32.83
2023-02-13T08:55:44.621Z,29.43
2023-02-13T08:58:12.819Z,32.87
2023-02-13T09:00:41.047Z,34.73
2023-02-13T09:03:10.495Z,31.87
2023-02-13T09:05:38.911Z,28.73
2023-02-13T09:08:08.202Z,30.17
2023-02-13T09:10:36.305Z,35.30
2023-02-13T09:13:04.676Z,31.40
2023-02-13T09:15:32.762Z,37.13
2023-02-13T09:18:01.178Z,32.33
2023-02-13T09:20:29.028Z,30.63
2023-02-13T09:22:57.157Z,31.40
2023-02-13T09:25:24.862Z,28.40
2023-02-13T09:27:52.893Z,28.47
2023-02-13T09:30:24.192Z,31.77
2023-02-13T09:32:52.990Z,28.13
2023-02-13T09:35:20.589Z,29.17
2023-02-13T09:37:48.763Z,30.30
2023-02-13T09:40:23.990Z,32.90
2023-02-13T09:43:17.272Z,33.30
2023-02-13T09:45:45.236Z,32.67
2023-02-13T09:48:19.080Z,54.57
2023-02-13T09:50:46.645Z,82.07
2023-02-13T09:53:20.683Z,66.93
2023-02-13T09:55:53.101Z,84.03
2023-02-13T09:58:27.365Z,68.30
2023-02-13T10:00:56.462Z,59.83
2023-02-13T10:03:30.552Z,58.93
2023-02-13T10:06:58.085Z,36.73
2023-02-13T10:09:36.651Z,24.13
2023-02-13T10:12:22.293Z,23.40
2023-02-13T10:15:11.495Z,19.00
2023-02-13T10:17:51.110Z,18.53
2023-02-13T10:20:40.439Z,24.03
2023-02-13T10:23:29.474Z,26.03
2023-02-13T10:26:42.714Z,23.90
2023-02-13T10:29:32.878Z,25.90
2023-02-13T10:32:01.351Z,40.43
2023-02-13T10:34:31.357Z,49.97
2023-02-13T10:36:58.642Z,52.23
2023-02-13T10:39:29.522Z,43.13
2023-02-13T10:41:59.440Z,23.03
2023-02-13T10:45:00.981Z,25.97
2023-02-13T10:47:48.684Z,22.23
2023-02-13T10:50:24.335Z,21.90
2023-02-13T10:53:15.720Z,23.10
2023-02-13T10:56:04.293Z,22.43
2023-02-13T10:58:43.262Z,19.27
2023-02-13T11:01:25.967Z,17.37
2023-02-13T11:04:05.512Z,18.53
2023-02-13T11:06:33.884Z,23.53
2023-02-13T11:09:07.341Z,21.10
2023-02-13T11:11:36.386Z,18.30
2023-02-13T11:14:22.990Z,21.83
2023-02-13T11:17:01.959Z,17.50
2023-02-13T11:19:39.889Z,19.67
2023-02-13T11:22:33.536Z,18.63
2023-02-13T11:25:13.502Z,21.93
2023-02-13T11:27:41.041Z,22.57
2023-02-13T11:30:12.542Z,22.17
2023-02-13T11:32:40.901Z,20.40
2023-02-13T11:35:27.526Z,21.67
2023-02-13T11:38:24.595Z,21.30
2023-02-13T11:41:12.703Z,19.00
2023-02-13T11:43:50.615Z,18.40
2023-02-13T11:46:25.380Z,20.07
2023-02-13T11:49:02.715Z,17.67
2023-02-13T11:51:42.477Z,17.00
2023-02-13T11:54:29.395Z,18.73
2023-02-13T11:57:17.500Z,18.65
2023-02-13T11:59:45.493Z,17.60
2023-02-13T12:02:20.538Z,17.53
2023-02-13T12:04:49.805Z,16.30
2023-02-13T12:07:24.514Z,20.03
2023-02-13T12:10:12.251Z,16.73
2023-02-13T12:12:45.473Z,16.97
2023-02-13T12:15:32.586Z,18.13
2023-02-13T12:18:23.810Z,16.50
2023-02-13T12:21:22.690Z,17.03
2023-02-13T12:24:04.209Z,17.00
2023-02-13T12:26:45.183Z,18.53
2023-02-13T12:29:22.039Z,17.57
2023-02-13T12:32:07.216Z,15.53
2023-02-13T12:34:52.387Z,15.63
2023-02-13T12:37:40.528Z,14.53
2023-02-13T12:40:24.892Z,18.90
2023-02-13T12:43:04.519Z,17.17
2023-02-13T12:45:37.676Z,17.23
2023-02-13T12:48:10.438Z,16.50
2023-02-13T12:50:53.958Z,15.83
2023-02-13T12:53:40.712Z,17.13
2023-02-13T12:56:16.838Z,14.43
2023-02-13T12:59:16.613Z,18.40
2023-02-13T13:01:49.505Z,17.97
2023-02-13T13:04:25.458Z,15.23
2023-02-13T13:07:11.822Z,20.73
2023-02-13T13:09:50.776Z,17.73
2023-02-13T13:12:54.190Z,17.73
2023-02-13T13:15:33.610Z,19.00
2023-02-13T13:18:07.506Z,18.33
2023-02-13T13:20:37.420Z,17.10
2023-02-13T13:23:11.879Z,19.33
2023-02-13T13:25:45.829Z,17.27
2023-02-13T13:28:22.240Z,19.77
2023-02-13T13:30:53.065Z,18.02
2023-02-13T13:33:22.240Z,19.63
2023-02-13T13:36:17.903Z,16.13
2023-02-13T13:39:07.292Z,19.13
2023-02-13T13:41:52.111Z,23.83
2023-02-13T13:44:49.532Z,20.17
2023-02-13T13:48:01.465Z,21.20
2023-02-13T13:50:30.637Z,19.00
2023-02-13T13:53:28.383Z,18.47
2023-02-13T13:56:01.121Z,19.83
2023-02-13T13:58:41.510Z,19.43
2023-02-13T14:01:23.584Z,24.33
2023-02-13T14:03:51.517Z,19.87
2023-02-13T14:06:23.874Z,19.47
2023-02-13T14:09:32.846Z,19.03
2023-02-13T14:12:02.490Z,18.07
2023-02-13T14:14:29.145Z,18.37
2023-02-13T14:16:59.894Z,19.57
2023-02-13T14:19:27.253Z,20.80
2023-02-13T14:22:00.929Z,18.67
2023-02-13T14:24:29.084Z,22.53
2023-02-13T14:27:05.108Z,18.13
2023-02-13T14:29:33.630Z,16.40
2023-02-13T14:32:03.433Z,20.43
2023-02-13T14:34:33.331Z,16.73
2023-02-13T14:37:21.174Z,15.97
2023-02-13T14:40:16.366Z,17.50
2023-02-13T14:43:29.628Z,18.73
2023-02-13T14:45:58.685Z,16.73
2023-02-13T14:48:36.602Z,17.57
2023-02-13T14:51:04.236Z,18.37
2023-02-13T14:53:34.822Z,19.20
2023-02-13T14:56:28.147Z,20.20
2023-02-13T14:59:04.705Z,18.70
2023-02-13T15:01:38.034Z,16.37
2023-02-13T15:04:13.319Z,20.23
2023-02-13T15:06:44.753Z,20.30
2023-02-13T15:09:35.647Z,17.00
2023-02-13T15:12:03.677Z,17.20
2023-02-13T15:14:38.067Z,18.33
2023-02-13T15:17:27.607Z,22.43
2023-02-13T15:19:55.748Z,19.50
2023-02-13T15:22:58.794Z,20.90
2023-02-13T15:25:41.643Z,22.23
2023-02-13T15:28:09.957Z,16.87
2023-02-13T15:30:38.626Z,17.63
2023-02-13T15:33:19.363Z,22.83
2023-02-13T15:35:47.470Z,18.83
2023-02-13T15:38:24.323Z,18.23
2023-02-13T15:40:52.766Z,19.47
2023-02-13T15:43:33.544Z,18.67
2023-02-13T15:46:05.942Z,19.50
2023-02-13T15:48:34.645Z,19.77
2023-02-13T15:51:02.546Z,20.93
2023-02-13T15:53:31.234Z,33.03
2023-02-13T15:56:03.558Z,25.20
2023-02-13T15:58:32.088Z,24.90
2023-02-13T16:01:07.706Z,20.73
2023-02-13T16:03:35.348Z,18.43
2023-02-13T16:06:02.635Z,20.37
2023-02-13T16:08:29.619Z,18.40
2023-02-13T16:11:29.677Z,20.03
2023-02-13T16:14:21.416Z,17.87
2023-02-13T16:17:03.283Z,19.70
2023-02-13T16:20:01.062Z,20.67
2023-02-13T16:25:04.874Z,34.33
2023-02-13T16:27:32.704Z,55.97
2023-02-13T16:30:01.453Z,32.60
2023-02-13T16:32:34.136Z,25.33
2023-02-13T16:35:57.914Z,21.00
2023-02-13T16:38:31.549Z,19.60
2023-02-13T16:41:00.637Z,20.53
2023-02-13T16:43:33.659Z,25.60
2023-02-13T16:46:15.208Z,22.53
2023-02-13T16:49:03.648Z,26.87
2023-02-13T16:51:30.361Z,35.37
2023-02-13T16:54:01.987Z,22.73
2023-02-13T16:56:29.077Z,25.67
2023-02-13T16:59:26.417Z,27.27
2023-02-13T17:02:13.519Z,23.30
2023-02-13T17:04:42.339Z,28.80
2023-02-13T17:07:13.034Z,24.13
2023-02-13T17:09:41.121Z,22.43
2023-02-13T17:12:17.338Z,27.97
2023-02-13T17:14:45.029Z,29.77
2023-02-13T17:17:17.372Z,26.70
2023-02-13T17:19:44.532Z,28.20
2023-02-13T17:22:37.284Z,33.00
2023-02-13T17:25:26.626Z,25.97
2023-02-13T17:27:57.034Z,25.27
2023-02-13T17:30:29.233Z,26.57
2023-02-13T17:33:04.648Z,28.80
2023-02-13T17:35:33.169Z,35.30
2023-02-13T17:38:01.066Z,27.37
2023-02-13T17:40:30.360Z,37.13
2023-02-13T17:42:58.983Z,44.90
2023-02-13T17:45:28.257Z,40.33
2023-02-13T17:47:57.851Z,43.27
2023-02-13T17:50:28.228Z,36.83
2023-02-13T17:52:55.225Z,34.63
2023-02-13T17:55:29.750Z,37.57
2023-02-13T17:57:57.782Z,33.73
2023-02-13T18:00:28.006Z,38.77
2023-02-13T18:02:55.444Z,37.90
2023-02-13T18:05:23.140Z,38.30
2023-02-13T18:07:51.208Z,36.03
2023-02-13T18:10:25.782Z,36.67
2023-02-13T18:12:53.182Z,31.10
2023-02-13T18:15:21.723Z,37.37
2023-02-13T18:17:49.847Z,33.30
2023-02-13T18:20:19.046Z,40.13
2023-02-13T18:22:47.365Z,38.67
2023-02-13T18:25:14.945Z,35.00
2023-02-13T18:27:43.283Z,38.80
2023-02-13T18:30:12.760Z,34.07
2023-02-13T18:32:40.412Z,37.40
2023-02-13T18:35:09.902Z,35.03
2023-02-13T18:37:39.351Z,34.20
2023-02-13T18:40:10.832Z,42.23
2023-02-13T18:42:39.122Z,32.90
2023-02-13T18:45:09.213Z,34.90
2023-02-13T18:47:37.248Z,39.73
2023-02-13T18:50:05.452Z,39.23
2023-02-13T18:52:33.452Z,30.97
2023-02-13T18:55:01.712Z,34.40
2023-02-13T18:57:29.811Z,30.90
2023-02-13T18:59:57.654Z,34.73
2023-02-13T19:02:25.791Z,32.70
2023-02-13T19:04:53.334Z,35.03
2023-02-13T19:07:20.956Z,34.23
2023-02-13T19:09:49.056Z,35.77
2023-02-13T19:12:17.268Z,35.53
2023-02-13T19:14:45.259Z,40.60
2023-02-13T19:17:13.008Z,32.77
2023-02-13T19:19:41.045Z,34.93
2023-02-13T19:22:09.310Z,34.97
2023-02-13T19:24:37.470Z,32.03
2023-02-13T19:27:05.243Z,39.00
2023-02-13T19:29:33.860Z,31.63
2023-02-13T19:32:01.984Z,38.67
2023-02-13T19:34:30.614Z,36.67
2023-02-13T19:36:58.850Z,38.57
2023-02-13T19:39:26.914Z,34.77
2023-02-13T19:41:55.198Z,36.83
2023-02-13T19:44:23.473Z,34.37
2023-02-13T19:46:51.832Z,32.63
2023-02-13T19:49:22.698Z,34.57
2023-02-13T19:51:50.506Z,44.73
2023-02-13T19:54:38.488Z,43.17
2023-02-13T19:59:33.905Z,44.83
2023-02-13T20:02:01.844Z,50.33
2023-02-13T20:04:29.502Z,54.87
2023-02-13T20:06:58.582Z,48.50
2023-02-13T20:09:27.916Z,44.20
2023-02-13T20:11:56.202Z,38.17
2023-02-13T20:14:25.304Z,38.97
2023-02-13T20:16:53.524Z,37.17
2023-02-13T20:19:21.918Z,43.77
2023-02-13T20:21:49.848Z,37.70
2023-02-13T20:24:18.046Z,39.10
2023-02-13T20:26:46.634Z,37.60
2023-02-13T20:29:14.277Z,35.77
2023-02-13T20:31:42.046Z,34.80
2023-02-13T20:34:09.894Z,43.00
2023-02-13T20:36:37.480Z,35.90
2023-02-13T20:39:06.536Z,34.87
2023-02-13T20:41:35.691Z,38.90
2023-02-13T20:44:05.274Z,40.97
2023-02-13T20:46:34.444Z,35.13
2023-02-13T20:49:02.693Z,35.90
2023-02-13T20:51:30.365Z,37.27
2023-02-13T20:54:00.014Z,37.60
2023-02-13T20:56:28.614Z,31.50
2023-02-13T20:58:57.306Z,41.20
2023-02-13T21:01:26.862Z,33.93
2023-02-13T21:03:55.054Z,37.10
2023-02-13T21:06:30.445Z,38.83
2023-02-13T21:08:57.741Z,33.77
2023-02-13T21:11:28.358Z,35.93
2023-02-13T21:13:57.690Z,41.73
2023-02-13T21:16:28.059Z,42.17
2023-02-13T21:18:56.638Z,39.37
2023-02-13T21:21:24.702Z,35.13
2023-02-13T21:23:56.311Z,37.83
2023-02-13T21:26:24.546Z,37.07
2023-02-13T21:28:52.850Z,38.47
2023-02-13T21:31:25.753Z,36.27
2023-02-13T21:33:53.060Z,48.07
2023-02-13T21:36:21.645Z,37.43
2023-02-13T21:38:51.164Z,44.03
2023-02-13T21:41:19.551Z,44.73
2023-02-13T21:43:48.236Z,40.50
2023-02-13T21:46:23.773Z,41.37
2023-02-13T21:49:02.148Z,41.83
2023-02-13T21:51:30.980Z,35.80
2023-02-13T21:53:58.762Z,46.33
2023-02-13T21:56:28.105Z,50.43
2023-02-13T21:58:56.944Z,43.00
2023-02-13T22:01:46.670Z,43.47
2023-02-13T22:04:15.404Z,51.03
2023-02-13T22:06:43.564Z,42.40
2023-02-13T22:09:13.764Z,38.50
2023-02-13T22:11:40.918Z,42.80
2023-02-13T22:14:12.046Z,39.10
2023-02-13T22:16:39.857Z,41.53
2023-02-13T22:19:08.772Z,36.13
2023-02-13T22:21:42.093Z,39.07
2023-02-13T22:24:10.079Z,39.80
2023-02-13T22:26:40.800Z,40.90
2023-02-13T22:29:14.265Z,45.07
2023-02-13T22:31:43.574Z,40.67
2023-02-13T22:34:12.333Z,41.03
2023-02-13T22:36:40.328Z,37.70
2023-02-13T22:39:08.313Z,45.63
2023-02-13T22:41:35.499Z,43.63
2023-02-13T22:44:03.750Z,50.47
2023-02-13T22:46:35.311Z,43.70
2023-02-13T22:49:03.202Z,45.37
2023-02-13T22:51:34.085Z,47.23
2023-02-13T22:54:01.441Z,49.10
2023-02-13T22:56:31.193Z,46.93
2023-02-13T22:58:59.156Z,47.47
2023-02-13T23:01:27.005Z,49.00
2023-02-13T23:03:55.032Z,42.67
2023-02-13T23:06:23.197Z,48.53
2023-02-13T23:08:52.713Z,43.90
2023-02-13T23:11:39.066Z,46.67
2023-02-13T23:14:07.209Z,49.30
2023-02-13T23:16:53.462Z,41.70
2023-02-13T23:19:21.671Z,48.57
2023-02-13T23:21:49.620Z,48.00
2023-02-13T23:24:18.585Z,43.53
2023-02-13T23:26:46.497Z,42.57
2023-02-13T23:29:14.842Z,45.20
2023-02-13T23:31:43.932Z,42.87
2023-02-13T23:34:13.523Z,40.87
2023-02-13T23:36:42.023Z,34.50
2023-02-13T23:39:10.468Z,36.03
2023-02-13T23:41:38.681Z,37.53
2023-02-13T23:44:06.867Z,40.43
2023-02-13T23:46:35.456Z,43.57
2023-02-13T23:49:04.372Z,47.10
2023-02-13T23:51:33.849Z,43.60
2023-02-13T23:54:02.350Z,38.80
2023-02-13T23:56:30.745Z,43.77
2023-02-13T23:58:58.390Z,40.27
